Time;durP1;ratioP1;P1;durP2;ratioP2;P2;SDS_P1;SDS_P2;PMS_P1;PMS_P2;Temp;Humidity;BMP_temperature;BMP_pressure;BME280_temperature;BME280_humidity;BME280_pressure;Samples;Min_cycle;Max_cycle;Signal;HPM_P1;HPM_P2
2022/03/12 00:02:00;;;;;;;4.62;2.60;;;;;;;-2.40;39.47;101408.47;4334313;33;34061;-65
2022/03/12 00:04:29;;;;;;;0.77;0.75;;;;;;;-2.21;39.81;101403.34;4334139;33;33543;-64
2022/03/12 00:06:58;;;;;;;0.50;0.50;;;;;;;-1.77;39.84;101406.84;4334097;33;33761;-71
2022/03/12 00:09:26;;;;;;;0.93;0.85;;;;;;;-1.93;40.44;101401.94;4334391;33;34250;-72
2022/03/12 00:12:00;;;;;;;1.90;1.80;;;;;;;-1.91;41.22;101402.66;4333800;33;33963;-65
2022/03/12 00:14:29;;;;;;;0.57;0.57;;;;;;;-1.49;40.24;101397.41;4334027;33;34022;-65
2022/03/12 00:16:59;;;;;;;0.50;0.50;;;;;;;-1.72;40.34;101403.81;4334270;33;34658;-72
2022/03/12 00:19:27;;;;;;;15.35;6.70;;;;;;;-1.80;40.70;101406.25;4334060;33;33815;-64
2022/03/12 00:21:55;;;;;;;3.62;2.60;;;;;;;-2.40;40.15;101398.69;4334460;33;33200;-72
2022/03/12 00:24:28;;;;;;;0.40;0.40;;;;;;;-2.76;41.56;101402.50;4334169;33;33611;-66
2022/03/12 00:26:59;;;;;;;0.52;0.52;;;;;;;-2.51;41.91;101401.38;4334066;33;34108;-73
2022/03/12 00:29:27;;;;;;;0.40;0.40;;;;;;;-2.27;40.49;101401.19;4334047;33;34195;-72
2022/03/12 00:31:55;;;;;;;1.60;1.50;;;;;;;-3.20;41.58;101415.59;4333660;33;34965;-72
2022/03/12 00:34:22;;;;;;;0.50;0.50;;;;;;;-2.52;41.17;101397.03;4334084;33;34574;-66
2022/03/12 00:36:50;;;;;;;0.50;0.50;;;;;;;-2.07;41.29;101400.44;4333817;33;33967;-65
2022/03/12 00:39:17;;;;;;;0.57;0.57;;;;;;;-2.49;41.76;101391.47;4333920;33;34328;-65
2022/03/12 00:41:45;;;;;;;0.40;0.40;;;;;;;-3.07;43.49;101396.09;4333997;33;33725;-72
2022/03/12 00:44:16;;;;;;;0.40;0.40;;;;;;;-2.99;43.16;101394.50;4334000;33;33549;-65
2022/03/12 00:46:44;;;;;;;0.50;0.50;;;;;;;-3.35;43.40;101393.78;4333784;33;33705;-65
2022/03/12 00:49:12;;;;;;;0.50;0.50;;;;;;;-3.34;43.31;101403.41;4334185;33;34271;-70
2022/03/12 00:51:39;;;;;;;1.65;1.55;;;;;;;-2.92;43.17;101410.81;4333467;33;33802;-70
2022/03/12 00:54:07;;;;;;;1.33;1.23;;;;;;;-2.37;42.83;101394.97;4333774;33;34253;-72
2022/03/12 00:56:35;;;;;;;0.62;0.52;;;;;;;-2.81;42.69;101386.06;4333744;33;33810;-65
2022/03/12 00:59:02;;;;;;;0.50;0.50;;;;;;;-3.29;42.87;101397.75;4333899;33;34209;-64
2022/03/12 01:01:30;;;;;;;0.60;0.60;;;;;;;-2.98;43.39;101411.28;4333617;33;34739;-71
2022/03/12 01:03:58;;;;;;;0.93;0.85;;;;;;;-2.91;43.04;101400.06;4333810;33;33385;-65
2022/03/12 01:06:26;;;;;;;5.15;2.05;;;;;;;-2.80;43.06;101390.44;4333955;33;34919;-65
2022/03/12 01:08:53;;;;;;;8.50;4.75;;;;;;;-3.21;43.11;101391.84;4333657;33;34853;-65
2022/03/12 01:11:21;;;;;;;5.68;2.37;;;;;;;-3.37;43.73;101392.19;4333952;33;33766;-64
2022/03/12 01:13:49;;;;;;;0.62;0.62;;;;;;;-2.37;42.04;101392.31;4333682;33;33622;-65
2022/03/12 01:16:16;;;;;;;2.55;2.35;;;;;;;-2.84;43.61;101397.78;4333855;33;33358;-65
2022/03/12 01:18:44;;;;;;;0.50;0.50;;;;;;;-2.40;42.58;101389.87;4334016;33;34297;-71
2022/03/12 01:21:18;;;;;;;3.70;2.22;;;;;;;-2.87;42.60;101392.72;4333630;33;34003;-64
2022/03/12 01:23:47;;;;;;;0.70;0.70;;;;;;;-2.68;42.09;101394.75;4333749;33;33701;-71
2022/03/12 01:26:16;;;;;;;0.50;0.50;;;;;;;-2.90;43.06;101399.09;4333776;33;33735;-65
2022/03/12 01:28:44;;;;;;;0.40;0.40;;;;;;;-2.95;43.29;101397.78;4333622;33;34876;-67
2022/03/12 01:31:13;;;;;;;1.05;1.05;;;;;;;-2.52;42.63;101391.72;4333727;33;33989;-70
2022/03/12 01:33:41;;;;;;;0.40;0.40;;;;;;;-3.13;43.82;101390.28;4333640;33;34317;-71
2022/03/12 01:36:08;;;;;;;0.88;0.88;;;;;;;-2.78;43.72;101397.31;4333589;33;34911;-65
2022/03/12 01:38:58;;;;;;;0.50;0.50;;;;;;;-2.94;43.00;101397.69;4333762;33;34197;-72
2022/03/12 01:41:30;;;;;;;0.82;0.77;;;;;;;-2.67;42.48;101409.72;4333472;33;34621;-71
2022/03/12 01:43:59;;;;;;;1.50;1.40;;;;;;;-2.75;43.61;101412.16;4333765;33;33493;-73
2022/03/12 01:46:29;;;;;;;0.40;0.40;;;;;;;-3.18;43.36;101407.53;4333698;33;33864;-72
2022/03/12 01:48:59;;;;;;;0.43;0.43;;;;;;;-3.31;43.82;101412.94;4333665;33;34930;-65
2022/03/12 01:51:27;;;;;;;0.50;0.50;;;;;;;-2.94;43.73;101423.37;4333712;33;34793;-72
2022/03/12 01:53:56;;;;;;;2.08;1.85;;;;;;;-2.60;43.04;101410.91;4333182;33;33591;-72
2022/03/12 01:56:27;;;;;;;0.40;0.40;;;;;;;-2.41;41.27;101414.78;4333614;33;33980;-65
2022/03/12 01:58:55;;;;;;;1.55;1.45;;;;;;;-3.05;43.85;101418.06;4333555;33;34199;-66
2022/03/12 02:01:22;;;;;;;0.50;0.50;;;;;;;-2.63;44.23;101416.50;4333326;33;33615;-66
2022/03/12 02:03:51;;;;;;;1.17;1.05;;;;;;;-2.60;41.92;101416.22;4332499;33;33116;-73
2022/03/12 02:06:21;;;;;;;0.50;0.50;;;;;;;-2.75;42.87;101410.31;4333363;33;34024;-66
2022/03/12 02:08:49;;;;;;;0.40;0.40;;;;;;;-3.10;43.95;101411.28;4333442;33;34214;-65
2022/03/12 02:11:51;;;;;;;0.40;0.40;;;;;;;-3.18;44.84;101408.38;4333443;33;34906;-65
2022/03/12 02:14:11;;;;;;;0.60;0.50;;;;;;;-2.76;42.87;101408.66;4331345;33;33382;-65
2022/03/12 02:17:03;;;;;;;0.82;0.60;;;;;;;-3.21;44.00;101407.78;4333501;33;34830;-64
2022/03/12 02:19:32;;;;;;;4.47;3.00;;;;;;;-3.40;44.05;101413.66;4333285;33;34149;-66
2022/03/12 02:22:03;;;;;;;0.60;0.60;;;;;;;-3.12;43.57;101409.72;4333253;33;34575;-71
2022/03/12 02:24:32;;;;;;;0.40;0.40;;;;;;;-3.64;44.56;101403.94;4320068;33;33590;-65
2022/03/12 02:27:02;;;;;;;0.60;0.60;;;;;;;-3.38;44.20;101401.12;4320117;33;34717;-65
2022/03/12 02:29:30;;;;;;;0.50;0.50;;;;;;;-3.63;45.00;101408.28;4320037;33;34398;-72
2022/03/12 02:32:04;;;;;;;0.60;0.60;;;;;;;-3.44;44.64;101407.72;4333013;33;34617;-65
2022/03/12 02:34:36;;;;;;;0.80;0.60;;;;;;;-3.56;45.73;101406.03;4333450;33;33390;-66
2022/03/12 02:37:03;;;;;;;2.62;2.05;;;;;;;-3.55;45.33;101408.53;4332955;33;33687;-65
2022/03/12 02:39:31;;;;;;;0.62;0.62;;;;;;;-3.90;46.47;101413.00;4333212;33;35039;-72
2022/03/12 02:42:00;;;;;;;0.50;0.50;;;;;;;-3.28;45.13;101411.84;4332992;33;33889;-70
2022/03/12 02:44:28;;;;;;;0.77;0.60;;;;;;;-3.53;45.75;101414.56;4333197;33;33581;-70
2022/03/12 02:47:20;;;;;;;0.55;0.55;;;;;;;-3.49;45.69;101414.38;4333066;33;33824;-65
2022/03/12 02:49:48;;;;;;;1.75;0.57;;;;;;;-3.44;45.94;101414.84;4332913;33;34230;-71
2022/03/12 02:52:17;;;;;;;0.50;0.50;;;;;;;-3.43;44.64;101416.56;4332885;33;34043;-65
2022/03/12 02:54:44;;;;;;;2.85;1.95;;;;;;;-3.34;44.72;101413.19;4332930;33;34041;-72
2022/03/12 02:57:12;;;;;;;1.15;1.12;;;;;;;-3.54;44.79;101418.22;4332809;33;34928;-65
2022/03/12 02:59:42;;;;;;;0.95;0.90;;;;;;;-3.45;45.09;101421.13;4332937;33;34177;-65
2022/03/12 03:02:12;;;;;;;0.60;0.60;;;;;;;-3.88;45.46;101419.06;4332752;33;33884;-65
2022/03/12 03:04:41;;;;;;;0.50;0.50;;;;;;;-3.48;44.70;101416.03;4332626;33;33563;-70
2022/03/12 03:07:10;;;;;;;0.73;0.73;;;;;;;-3.33;43.98;101421.00;4332866;33;34132;-65
2022/03/12 03:09:38;;;;;;;0.50;0.50;;;;;;;-3.87;45.09;101420.72;4332642;33;34849;-70
2022/03/12 03:12:09;;;;;;;0.40;0.40;;;;;;;-3.40;44.29;101419.81;4332977;33;33756;-73
2022/03/12 03:14:46;;;;;;;0.40;0.40;;;;;;;-3.20;43.46;101417.44;4333316;33;33267;-66
2022/03/12 03:17:14;;;;;;;0.40;0.40;;;;;;;-3.07;43.89;101417.31;4334551;33;34000;-66
2022/03/12 03:19:41;;;;;;;0.40;0.40;;;;;;;-3.54;43.31;101427.97;4334583;33;34028;-66
2022/03/12 03:22:12;;;;;;;0.40;0.40;;;;;;;-2.91;41.07;101420.47;4334581;33;34791;-65
2022/03/12 03:24:39;;;;;;;0.40;0.40;;;;;;;-2.64;40.06;101424.56;4334383;33;34319;-71
2022/03/12 03:27:08;;;;;;;0.47;0.47;;;;;;;-2.66;39.50;101422.03;4334505;33;34821;-65
2022/03/12 03:29:36;;;;;;;0.50;0.50;;;;;;;-3.16;40.60;101424.19;4334391;33;34078;-65
2022/03/12 03:32:05;;;;;;;2.00;1.90;;;;;;;-2.87;40.77;101419.28;4334483;33;33795;-65
2022/03/12 03:34:33;;;;;;;1.75;1.65;;;;;;;-2.71;40.79;101426.87;4334474;33;33295;-68
2022/03/12 03:37:00;;;;;;;0.47;0.47;;;;;;;-2.70;40.82;101423.25;4334344;33;33874;-66
2022/03/12 03:39:28;;;;;;;0.50;0.50;;;;;;;-2.48;40.41;101423.25;4334431;33;34268;-71
2022/03/12 03:41:55;;;;;;;1.08;1.08;;;;;;;-2.26;38.53;101426.84;4334376;33;34657;-65
2022/03/12 03:44:28;;;;;;;0.65;0.65;;;;;;;-2.58;39.74;101435.56;4334218;33;33522;-65
2022/03/12 03:46:56;;;;;;;0.57;0.57;;;;;;;-2.54;40.03;101422.88;4334462;33;34658;-66
2022/03/12 03:49:24;;;;;;;0.47;0.47;;;;;;;-2.14;39.02;101439.12;4334495;33;33948;-65
2022/03/12 03:51:53;;;;;;;0.62;0.62;;;;;;;-2.37;38.76;101432.16;4334065;33;33982;-66
2022/03/12 03:54:20;;;;;;;0.40;0.40;;;;;;;-2.55;40.11;101445.09;4334325;33;33619;-73
2022/03/12 03:56:47;;;;;;;0.40;0.40;;;;;;;-2.76;41.07;101437.88;4334488;33;33484;-66
2022/03/12 03:59:15;;;;;;;0.40;0.40;;;;;;;-2.07;39.82;101428.84;4334040;33;35169;-66
2022/03/12 04:01:45;;;;;;;0.85;0.85;;;;;;;-2.88;41.23;101433.50;4334273;33;34061;-64
2022/03/12 04:04:13;;;;;;;0.50;0.50;;;;;;;-2.77;41.04;101432.66;4334689;33;33555;-65
2022/03/12 04:06:40;;;;;;;0.50;0.50;;;;;;;-2.22;42.36;101438.06;4334031;33;33777;-71
2022/03/12 04:09:08;;;;;;;0.40;0.40;;;;;;;-2.40;40.87;101427.91;4334173;33;35041;-68
2022/03/12 04:11:35;;;;;;;0.40;0.40;;;;;;;-2.59;40.82;101441.00;4334125;33;33950;-65
2022/03/12 04:14:05;;;;;;;0.52;0.52;;;;;;;-2.48;41.55;101431.22;4333810;33;34418;-66
2022/03/12 04:16:33;;;;;;;5.95;2.33;;;;;;;-2.85;42.04;101432.41;4334309;33;34035;-65
2022/03/12 04:19:05;;;;;;;0.40;0.40;;;;;;;-3.30;42.96;101431.41;4334206;33;35068;-65
2022/03/12 04:21:33;;;;;;;4.82;2.83;;;;;;;-3.33;42.92;101430.78;4334153;33;34654;-65
2022/03/12 04:24:01;;;;;;;0.40;0.40;;;;;;;-2.76;42.83;101439.69;4334062;33;32862;-66
2022/03/12 04:26:31;;;;;;;0.40;0.40;;;;;;;-2.87;42.83;101434.34;4333423;33;33993;-68
2022/03/12 04:28:58;;;;;;;2.08;1.95;;;;;;;-2.87;42.57;101431.69;4334130;33;34144;-67
2022/03/12 04:31:25;;;;;;;0.50;0.50;;;;;;;-2.94;42.68;101436.63;4333943;33;33902;-75
2022/03/12 04:33:53;;;;;;;0.50;0.50;;;;;;;-2.81;42.39;101433.87;4333868;33;33383;-72
2022/03/12 04:36:20;;;;;;;1.85;1.27;;;;;;;-2.57;42.21;101426.63;4334155;33;33914;-66
2022/03/12 04:38:49;;;;;;;0.47;0.47;;;;;;;-2.76;42.28;101429.91;4333955;33;34390;-65
2022/03/12 04:41:19;;;;;;;0.50;0.50;;;;;;;-2.87;43.08;101431.69;4334064;33;34341;-77
2022/03/12 04:43:49;;;;;;;0.40;0.40;;;;;;;-2.92;43.42;101432.91;4333910;33;34413;-75
2022/03/12 04:46:17;;;;;;;0.40;0.40;;;;;;;-2.74;43.25;101438.59;4334070;33;34815;-71
2022/03/12 04:48:44;;;;;;;3.42;2.53;;;;;;;-3.34;44.22;101437.06;4333983;33;34306;-67
2022/03/12 04:51:12;;;;;;;0.60;0.60;;;;;;;-2.47;43.85;101440.84;4334291;33;34732;-73
2022/03/12 04:53:40;;;;;;;0.40;0.40;;;;;;;-2.89;43.77;101442.47;4333885;33;34365;-66
2022/03/12 04:56:09;;;;;;;0.50;0.50;;;;;;;-3.09;43.90;101441.31;4333773;33;33800;-65
2022/03/12 04:58:36;;;;;;;0.50;0.50;;;;;;;-3.14;44.16;101449.66;4333874;33;34314;-73
2022/03/12 05:01:06;;;;;;;0.60;0.60;;;;;;;-3.16;44.21;101448.91;4333771;33;34027;-72
2022/03/12 05:03:34;;;;;;;0.50;0.50;;;;;;;-3.08;44.65;101439.53;4333634;33;33586;-73
2022/03/12 05:06:03;;;;;;;0.50;0.50;;;;;;;-2.82;43.81;101445.47;4333823;33;34866;-66
2022/03/12 05:08:35;;;;;;;0.50;0.50;;;;;;;-2.60;42.67;101447.28;4334171;33;34193;-66
2022/03/12 05:11:03;;;;;;;0.60;0.60;;;;;;;-2.67;43.05;101454.06;4333942;33;34221;-72
2022/03/12 05:13:33;;;;;;;0.50;0.50;;;;;;;-2.90;43.74;101451.38;4320864;33;34354;-66
2022/03/12 05:16:05;;;;;;;1.00;0.68;;;;;;;-2.94;43.77;101447.25;4333495;33;34002;-69
2022/03/12 05:18:34;;;;;;;1.17;1.17;;;;;;;-3.51;44.95;101441.84;4331112;33;34950;-66
2022/03/12 05:21:03;;;;;;;0.50;0.50;;;;;;;-2.72;44.05;101447.28;4320624;33;33682;-73
2022/03/12 05:23:32;;;;;;;0.40;0.40;;;;;;;-3.14;44.51;101448.81;4333660;33;33480;-71
2022/03/12 05:26:00;;;;;;;0.50;0.50;;;;;;;-3.55;45.38;101451.00;4333697;33;34701;-65
2022/03/12 05:28:32;;;;;;;0.73;0.73;;;;;;;-3.54;45.41;101451.84;4321278;33;34318;-66
2022/03/12 05:31:04;;;;;;;0.40;0.40;;;;;;;-2.74;43.76;101454.53;4318985;33;34029;-72
2022/03/12 05:33:32;;;;;;;0.50;0.50;;;;;;;-2.58;44.02;101454.16;4319145;33;34551;-73
2022/03/12 05:36:01;;;;;;;0.40;0.40;;;;;;;-2.49;43.17;101458.75;4318900;33;33764;-72
2022/03/12 05:38:34;;;;;;;3.20;2.35;;;;;;;-3.15;44.41;101453.28;4312213;33;34353;-72
2022/03/12 05:41:06;;;;;;;0.50;0.50;;;;;;;-3.03;43.90;101451.47;4329300;33;33933;-70
2022/03/12 05:43:34;;;;;;;0.40;0.40;;;;;;;-3.07;44.09;101443.87;4333221;33;33227;-70
2022/03/12 05:46:02;;;;;;;1.05;0.65;;;;;;;-2.86;44.82;101447.53;4325247;33;33793;-71
2022/03/12 05:48:29;;;;;;;1.15;1.05;;;;;;;-3.08;45.40;101453.66;4324974;33;34286;-63
2022/03/12 05:50:57;;;;;;;0.50;0.50;;;;;;;-2.70;43.68;101449.81;4318768;33;34577;-61
2022/03/12 05:53:25;;;;;;;0.75;0.75;;;;;;;-3.28;45.58;101443.69;4323610;33;33713;-68
2022/03/12 05:55:53;;;;;;;0.50;0.50;;;;;;;-2.71;45.48;101448.13;4324557;33;34267;-67
2022/03/12 05:58:26;;;;;;;1.05;0.90;;;;;;;-2.61;44.21;101450.87;4327141;33;34064;-68
2022/03/12 06:00:55;;;;;;;8.43;2.60;;;;;;;-2.29;42.68;101449.19;4332108;33;33783;-61
2022/03/12 06:03:24;;;;;;;0.62;0.62;;;;;;;-2.00;42.55;101448.62;4332025;33;34256;-68
2022/03/12 06:05:55;;;;;;;0.90;0.82;;;;;;;-2.24;41.90;101440.00;4331649;33;34851;-66
2022/03/12 06:08:23;;;;;;;0.73;0.70;;;;;;;-0.79;38.93;101439.41;4325270;33;34236;-65
2022/03/12 06:10:52;;;;;;;0.60;0.60;;;;;;;0.27;35.25;101433.50;4318139;33;34009;-67
2022/03/12 06:13:29;;;;;;;0.50;0.50;;;;;;;0.98;35.50;101451.00;4323586;33;33674;-62
2022/03/12 06:15:58;;;;;;;13.15;5.75;;;;;;;1.67;32.42;101452.44;4317320;33;34149;-68
2022/03/12 06:18:27;;;;;;;17.33;8.07;;;;;;;2.49;30.30;101447.94;4317322;33;34682;-68
2022/03/12 06:20:55;;;;;;;10.63;3.42;;;;;;;1.93;30.52;101443.72;4316818;33;34244;-70
2022/03/12 06:23:23;;;;;;;1.65;0.85;;;;;;;1.72;30.83;101447.47;4317208;33;34441;-67
2022/03/12 06:25:52;;;;;;;23.33;10.35;;;;;;;2.11;30.67;101444.56;4315284;33;34014;-69
2022/03/12 06:28:21;;;;;;;16.62;9.07;;;;;;;2.21;30.85;101453.38;4317163;33;34298;-66
2022/03/12 06:30:53;;;;;;;9.55;4.72;;;;;;;2.42;29.82;101449.56;4317079;33;33348;-69
2022/03/12 06:33:22;;;;;;;6.20;3.70;;;;;;;2.28;30.26;101460.81;4317159;33;33610;-66
2022/03/12 06:35:51;;;;;;;1.65;1.30;;;;;;;2.28;30.06;101456.28;4316747;33;34075;-67
2022/03/12 06:38:19;;;;;;;10.50;5.30;;;;;;;2.35;29.93;101462.69;4317135;33;34297;-68
2022/03/12 06:40:46;;;;;;;4.28;3.58;;;;;;;2.34;29.71;101452.16;4316819;33;33843;-65
2022/03/12 06:43:16;;;;;;;8.10;4.37;;;;;;;2.97;28.54;101460.03;4316918;33;34208;-65
2022/03/12 06:45:44;;;;;;;0.62;0.50;;;;;;;2.49;28.57;101458.66;4316271;33;34933;-64
2022/03/12 06:48:12;;;;;;;11.23;5.53;;;;;;;2.61;28.94;101467.28;4317054;33;34238;-66
2022/03/12 06:50:40;;;;;;;9.38;4.65;;;;;;;3.23;28.86;101461.88;4315582;33;34850;-68
2022/03/12 06:53:07;;;;;;;0.60;0.60;;;;;;;3.17;28.02;101474.06;4316873;33;32886;-68
2022/03/12 06:55:35;;;;;;;2.70;1.15;;;;;;;3.35;28.42;101481.22;4303492;33;33564;-67
2022/03/12 06:58:03;;;;;;;7.75;3.90;;;;;;;2.80;28.19;101471.63;4316731;33;34029;-66
2022/03/12 07:00:31;;;;;;;6.85;3.37;;;;;;;2.71;28.65;101486.81;4316472;33;34138;-67
2022/03/12 07:02:59;;;;;;;7.97;3.50;;;;;;;3.11;28.63;101485.47;4316994;33;34341;-65
2022/03/12 07:05:27;;;;;;;16.48;6.47;;;;;;;2.88;28.76;101477.06;4316339;33;34866;-63
2022/03/12 07:07:55;;;;;;;16.83;6.65;;;;;;;2.83;28.52;101490.06;4317563;33;34306;-64
2022/03/12 07:10:23;;;;;;;8.95;4.28;;;;;;;3.23;27.76;101494.06;4331323;33;34823;-65
2022/03/12 07:12:51;;;;;;;0.55;0.55;;;;;;;3.13;27.68;101490.63;4331276;33;33821;-65
2022/03/12 07:15:19;;;;;;;0.75;0.75;;;;;;;3.54;27.58;101497.09;4330955;33;33963;-71
2022/03/12 07:17:47;;;;;;;10.13;5.15;;;;;;;3.82;26.90;101491.53;4331525;33;34234;-67
2022/03/12 07:20:15;;;;;;;8.82;4.65;;;;;;;2.91;28.07;101490.16;4330785;33;34433;-68
2022/03/12 07:22:44;;;;;;;1.77;1.67;;;;;;;3.03;28.46;101485.38;4330952;33;34421;-67
2022/03/12 07:25:12;;;;;;;9.45;4.15;;;;;;;3.59;27.07;101485.91;4329895;33;33899;-63
2022/03/12 07:27:41;;;;;;;10.48;5.00;;;;;;;3.64;26.94;101489.75;4332305;33;34292;-64
2022/03/12 07:30:12;;;;;;;0.60;0.60;;;;;;;3.61;27.54;101487.41;4332335;33;34019;-62
2022/03/12 07:32:42;;;;;;;2.28;0.60;;;;;;;3.12;27.64;101489.81;4332687;33;34231;-63
2022/03/12 07:35:12;;;;;;;2.03;0.98;;;;;;;2.93;28.24;101492.69;4331987;33;33816;-63
2022/03/12 07:37:40;;;;;;;1.20;1.05;;;;;;;2.71;28.48;101484.13;4332220;33;34326;-68
2022/03/12 07:40:09;;;;;;;1.33;1.23;;;;;;;2.59;28.68;101480.84;4332213;33;33993;-64
2022/03/12 07:42:37;;;;;;;1.65;1.10;;;;;;;3.11;27.60;101496.19;4332093;33;34081;-63
2022/03/12 07:45:06;;;;;;;9.00;3.78;;;;;;;2.98;28.09;101491.22;4332078;33;34026;-65
2022/03/12 07:47:34;;;;;;;7.12;3.90;;;;;;;3.09;27.62;101484.78;4331970;33;33956;-65
2022/03/12 07:50:08;;;;;;;0.50;0.50;;;;;;;4.06;26.39;101472.81;4332007;33;33943;-66
2022/03/12 07:52:35;;;;;;;6.80;3.83;;;;;;;4.10;26.95;101470.63;4332258;33;33622;-65
2022/03/12 07:55:05;;;;;;;0.80;0.70;;;;;;;4.34;26.45;101464.47;4332125;33;34083;-67
2022/03/12 07:57:33;;;;;;;0.85;0.85;;;;;;;4.86;25.72;101469.56;4318881;33;34996;-65
2022/03/12 08:00:00;;;;;;;8.55;4.65;;;;;;;4.44;26.30;101469.69;4331894;33;34362;-69
2022/03/12 08:02:29;;;;;;;7.32;3.92;;;;;;;4.69;25.95;101457.13;4333343;33;33915;-70
2022/03/12 08:04:57;;;;;;;8.63;4.43;;;;;;;5.22;25.33;101463.78;4334210;33;34041;-68
2022/03/12 08:07:26;;;;;;;7.65;4.57;;;;;;;5.35;25.04;101468.63;4334174;33;34188;-70
2022/03/12 08:09:56;;;;;;;2.47;2.25;;;;;;;4.68;25.47;101463.50;4334261;33;33625;-68
2022/03/12 08:12:25;;;;;;;10.95;6.00;;;;;;;3.71;26.78;101465.81;4334064;33;33532;-68
2022/03/12 08:14:52;;;;;;;7.93;3.87;;;;;;;3.60;26.63;101466.94;4333869;33;34063;-68
2022/03/12 08:17:20;;;;;;;7.30;3.87;;;;;;;3.70;26.12;101475.72;4334081;33;33680;-67
2022/03/12 08:19:48;;;;;;;8.05;4.15;;;;;;;4.08;25.44;101464.59;4334248;33;34058;-70
2022/03/12 08:22:15;;;;;;;7.15;3.95;;;;;;;3.56;25.63;101468.25;4333939;33;33211;-68
2022/03/12 08:24:43;;;;;;;6.47;4.12;;;;;;;3.65;25.94;101472.69;4332772;33;34689;-68
2022/03/12 08:27:14;;;;;;;0.50;0.50;;;;;;;3.82;25.26;101470.91;4334119;33;35130;-67
2022/03/12 08:29:43;;;;;;;7.00;3.45;;;;;;;4.22;24.80;101465.81;4323066;33;34001;-67
2022/03/12 08:32:11;;;;;;;7.72;3.95;;;;;;;4.76;24.50;101474.25;4306295;33;33578;-69
2022/03/12 08:34:41;;;;;;;7.40;4.07;;;;;;;5.27;23.41;101465.94;4319143;33;34856;-67
2022/03/12 08:37:08;;;;;;;6.62;3.83;;;;;;;5.83;22.16;101469.47;4318991;33;34340;-66
2022/03/12 08:39:36;;;;;;;7.43;3.78;;;;;;;5.93;22.41;101474.63;4318959;33;33729;-69
2022/03/12 08:42:03;;;;;;;6.72;4.18;;;;;;;5.99;22.36;101471.28;4319357;33;33540;-69
2022/03/12 08:44:31;;;;;;;6.37;3.83;;;;;;;6.15;21.76;101468.50;4318957;33;34363;-66
2022/03/12 08:46:59;;;;;;;9.07;3.97;;;;;;;5.43;22.28;101467.78;4319289;33;35143;-66
2022/03/12 08:49:27;;;;;;;0.55;0.55;;;;;;;5.83;21.20;101464.09;4318523;33;34151;-67
2022/03/12 08:51:54;;;;;;;8.05;4.47;;;;;;;5.89;21.59;101466.06;4318264;33;33639;-68
2022/03/12 08:54:22;;;;;;;12.43;5.95;;;;;;;4.67;23.02;101453.75;4318915;33;34275;-68
2022/03/12 08:56:49;;;;;;;8.40;4.40;;;;;;;4.80;23.12;101458.62;4319010;33;34274;-67
2022/03/12 08:59:17;;;;;;;7.03;4.00;;;;;;;5.39;21.99;101472.66;4318967;33;33995;-70
2022/03/12 09:01:46;;;;;;;7.32;3.90;;;;;;;5.31;22.40;101459.22;4319138;33;33627;-68
2022/03/12 09:04:14;;;;;;;0.55;0.55;;;;;;;5.45;21.10;101465.75;4319385;33;33940;-67
2022/03/12 09:06:42;;;;;;;5.20;3.17;;;;;;;5.60;22.68;101458.62;4318926;33;34095;-67
2022/03/12 09:09:10;;;;;;;8.18;3.95;;;;;;;6.19;21.65;101466.28;4318741;33;34208;-68
2022/03/12 09:11:37;;;;;;;8.30;4.60;;;;;;;5.93;21.15;101467.37;4318902;33;33597;-67
2022/03/12 09:14:04;;;;;;;9.15;3.60;;;;;;;5.64;22.92;101467.22;4318697;33;33986;-67
2022/03/12 09:16:32;;;;;;;7.43;4.00;;;;;;;6.28;22.12;101462.50;4319071;33;35129;-69
2022/03/12 09:18:59;;;;;;;6.20;3.35;;;;;;;5.86;20.89;101461.03;4319155;33;33999;-67
2022/03/12 09:21:27;;;;;;;7.65;3.80;;;;;;;6.41;20.62;101461.91;4318856;33;34259;-66
2022/03/12 09:23:54;;;;;;;7.18;3.70;;;;;;;5.74;20.74;101462.44;4318489;33;34839;-68
2022/03/12 09:26:22;;;;;;;7.18;3.55;;;;;;;5.83;20.75;101452.47;4319328;33;35238;-70
2022/03/12 09:28:50;;;;;;;6.60;3.60;;;;;;;6.40;20.79;101456.72;4319160;33;33971;-72
2022/03/12 09:31:18;;;;;;;9.88;5.12;;;;;;;6.74;20.21;101454.44;4317308;33;34167;-69
2022/03/12 09:33:46;;;;;;;6.20;3.70;;;;;;;6.95;20.45;101447.50;4319059;33;33696;-69
2022/03/12 09:36:13;;;;;;;8.43;4.72;;;;;;;7.27;19.86;101454.41;4318968;33;33948;-66
2022/03/12 09:38:40;;;;;;;5.57;3.12;;;;;;;7.71;20.08;101453.59;4323459;33;34008;-67
2022/03/12 09:41:08;;;;;;;6.70;3.05;;;;;;;7.52;18.91;101452.28;4333462;33;34586;-69
2022/03/12 09:43:36;;;;;;;6.62;3.35;;;;;;;7.70;19.91;101448.38;4333505;33;33573;-68
2022/03/12 09:46:04;;;;;;;7.62;3.58;;;;;;;7.70;19.55;101442.97;4332242;33;34293;-68
2022/03/12 09:48:32;;;;;;;6.57;3.50;;;;;;;8.31;18.67;101438.03;4332860;33;33968;-67
2022/03/12 09:51:01;;;;;;;5.75;3.35;;;;;;;6.75;20.05;101439.06;4333429;33;34129;-67
2022/03/12 09:53:29;;;;;;;5.78;3.17;;;;;;;7.24;19.44;101448.56;4333186;33;34657;-68
2022/03/12 09:55:56;;;;;;;5.95;3.42;;;;;;;6.13;20.31;101440.03;4330625;33;35027;-67
2022/03/12 09:58:23;;;;;;;4.90;3.10;;;;;;;7.38;19.14;101442.31;4318953;33;33959;-67
2022/03/12 10:00:51;;;;;;;5.72;3.28;;;;;;;7.85;19.06;101451.88;4318213;33;34334;-67
2022/03/12 10:03:19;;;;;;;6.05;3.45;;;;;;;7.44;20.31;101430.78;4318630;33;33895;-68
2022/03/12 10:05:47;;;;;;;6.53;4.10;;;;;;;7.44;20.13;101427.25;4318749;33;35064;-67
2022/03/12 10:08:15;;;;;;;8.00;3.92;;;;;;;8.10;20.30;101427.22;4319010;33;34150;-67
2022/03/12 10:10:42;;;;;;;8.13;3.75;;;;;;;7.53;19.45;101434.22;4318989;33;33496;-65
2022/03/12 10:13:11;;;;;;;11.68;6.03;;;;;;;8.20;19.23;101433.16;4319022;33;34024;-68
2022/03/12 10:15:38;;;;;;;6.70;4.25;;;;;;;7.68;18.82;101426.09;4318723;33;35165;-67
2022/03/12 10:18:06;;;;;;;6.93;3.90;;;;;;;7.54;20.10;101435.91;4318312;33;33877;-67
2022/03/12 10:20:35;;;;;;;6.05;3.60;;;;;;;7.07;19.64;101431.69;4319152;33;33014;-68
2022/03/12 10:23:03;;;;;;;7.70;3.90;;;;;;;6.97;19.82;101432.78;4318830;33;33927;-68
2022/03/12 10:25:33;;;;;;;6.65;3.85;;;;;;;7.68;20.42;101428.81;4317545;33;34739;-68
2022/03/12 10:28:00;;;;;;;6.35;3.62;;;;;;;7.59;20.46;101426.19;4318526;33;34945;-67
2022/03/12 10:30:27;;;;;;;6.47;4.15;;;;;;;7.24;18.95;101424.28;4316972;33;33683;-65
2022/03/12 10:32:55;;;;;;;6.07;3.45;;;;;;;7.64;18.74;101425.62;4318535;33;34044;-65
2022/03/12 10:35:24;;;;;;;5.82;3.30;;;;;;;7.86;18.62;101420.28;4318723;33;33816;-65
2022/03/12 10:37:53;;;;;;;5.65;2.90;;;;;;;8.35;18.65;101415.00;4318637;33;34851;-66
2022/03/12 10:40:25;;;;;;;7.72;4.05;;;;;;;8.18;18.50;101418.97;4318462;33;33651;-66
2022/03/12 10:42:58;;;;;;;5.32;3.33;;;;;;;7.89;19.05;101411.81;4318368;33;33969;-67
2022/03/12 10:45:31;;;;;;;4.80;3.12;;;;;;;8.05;19.09;101424.25;4318252;33;34468;-68
2022/03/12 10:48:02;;;;;;;5.12;3.10;;;;;;;8.02;18.97;101410.09;4318333;33;34629;-68
2022/03/12 10:50:38;;;;;;;7.15;3.10;;;;;;;7.32;19.08;101407.97;4318718;33;34095;-68
2022/03/12 10:53:07;;;;;;;5.05;2.95;;;;;;;7.96;19.32;101400.03;4318378;33;33892;-69
2022/03/12 10:55:40;;;;;;;5.47;3.30;;;;;;;8.30;18.12;101411.22;4318277;33;35080;-68
2022/03/12 10:58:15;;;;;;;6.05;3.12;;;;;;;7.13;19.13;101406.69;4318096;33;34782;-69
2022/03/12 11:00:48;;;;;;;7.15;3.30;;;;;;;7.67;18.73;101398.25;4318326;33;34282;-68
2022/03/12 11:03:21;;;;;;;5.20;2.90;;;;;;;7.89;18.32;101391.03;4318251;33;33890;-68
2022/03/12 11:05:51;;;;;;;4.63;2.90;;;;;;;7.65;18.32;101392.22;4318312;33;34319;-68
2022/03/12 11:08:21;;;;;;;5.00;2.80;;;;;;;8.24;18.20;101390.34;4318476;33;33681;-68
2022/03/12 11:10:59;;;;;;;7.40;2.78;;;;;;;8.01;18.70;101384.09;4318026;33;33528;-69
2022/03/12 11:13:49;;;;;;;5.35;2.58;;;;;;;7.75;18.40;101383.78;4318057;33;34691;-68
2022/03/12 11:16:17;;;;;;;5.40;2.70;;;;;;;7.41;18.20;101387.97;4318317;33;34051;-69
2022/03/12 11:18:50;;;;;;;4.30;2.58;;;;;;;8.65;17.75;101384.28;4317700;33;33824;-69
2022/03/12 11:21:33;;;;;;;4.80;2.78;;;;;;;8.41;17.37;101370.97;4317915;33;33772;-69
2022/03/12 11:24:03;;;;;;;5.35;3.03;;;;;;;7.87;19.17;101368.75;4318006;33;34607;-69
2022/03/12 11:26:55;;;;;;;4.35;2.75;;;;;;;7.73;19.04;101372.31;4317738;33;34838;-69
2022/03/12 11:29:25;;;;;;;5.43;2.75;;;;;;;8.42;17.65;101366.41;4317853;33;34545;-68
2022/03/12 11:31:57;;;;;;;6.95;2.80;;;;;;;9.11;18.50;101362.13;4316050;33;34392;-67
2022/03/12 11:34:25;;;;;;;7.53;3.00;;;;;;;8.98;16.76;101358.28;4317675;33;33989;-71
2022/03/12 11:36:55;;;;;;;5.55;2.80;;;;;;;9.76;16.85;101363.47;4319627;33;34090;-69
2022/03/12 11:39:40;;;;;;;8.38;2.90;;;;;;;8.56;17.22;101351.13;4317773;33;33844;-69